aviador You're here:

CYPR Decoded Metar

PRINCE PUPERT in BC, CANADA
Report Time2017-06-25 20:00:00
UTC Time2017-06-25 20:51:12
Flight Rules vfr VFR
Wind290° at 09 kt
W.Decomp.*RWY 31: 6.7 kt HW 6 kt LCW
W.Rank290° ranks 10
Current wind is above 290° avg. (6.5)
Visibility9999 m
Phenomena:N/A
Clouds:Few 045 Hf
Expected CloudBase > 2,000 ft AGL from Temp-Dew spread
CeilingNone
Temp15°C (ISA 0)
Dew Point10°C (72% RH)
AAT11.8°C
QNH1017 hPa
Density Alt167 ft
Elevation112 ft
Report Wrong Elevation
Raw Report
CYPR 252000Z AUTO 29009KT 260V330 9SM FEW045 15/10 A3002 RMK
SLP167=

Extra information for CYPR:More info

Metar Taf Metar & Taf Last 4 Metars F.Rules Stats Wind Profile Meteogram Temp Stats Airport Information Weather charts Add Link Nearby VenuesMetar ALERT Operation Metar Decoded Social comments